createdAt,value
2022-12-17T00:01:09.198Z,51.50
2022-12-17T00:03:56.874Z,48.53
2022-12-17T00:06:42.942Z,48.60
2022-12-17T00:09:29.800Z,50.83
2022-12-17T00:12:30.113Z,52.00
2022-12-17T00:15:15.894Z,45.90
2022-12-17T00:18:01.819Z,50.53
2022-12-17T00:20:48.019Z,50.90
2022-12-17T00:23:34.105Z,48.77
2022-12-17T00:26:21.422Z,47.27
2022-12-17T00:29:07.860Z,53.43
2022-12-17T00:31:53.911Z,58.77
2022-12-17T00:34:42.289Z,52.80
2022-12-17T00:37:29.705Z,43.73
2022-12-17T00:40:15.782Z,48.20
2022-12-17T00:43:02.801Z,40.83
2022-12-17T00:45:50.580Z,39.60
2022-12-17T00:48:36.994Z,37.30
2022-12-17T00:51:23.260Z,43.47
2022-12-17T00:54:08.777Z,32.47
2022-12-17T00:56:54.610Z,38.80
2022-12-17T00:59:43.195Z,34.67
2022-12-17T01:02:29.425Z,34.60
2022-12-17T01:05:15.376Z,38.27
2022-12-17T01:08:00.836Z,37.63
2022-12-17T01:10:46.763Z,33.43
2022-12-17T01:13:33.104Z,36.60
2022-12-17T01:16:23.237Z,31.23
2022-12-17T01:19:10.556Z,34.80
2022-12-17T01:21:56.396Z,34.63
2022-12-17T01:24:42.245Z,32.83
2022-12-17T01:27:28.240Z,34.40
2022-12-17T01:30:14.452Z,35.63
2022-12-17T01:33:01.872Z,31.97
2022-12-17T01:35:47.773Z,29.00
2022-12-17T01:38:34.883Z,30.33
2022-12-17T01:41:20.832Z,32.17
2022-12-17T01:44:06.789Z,32.20
2022-12-17T01:46:55.674Z,28.37
2022-12-17T01:49:45.011Z,30.37
2022-12-17T01:52:34.018Z,29.87
2022-12-17T01:55:20.922Z,29.00
2022-12-17T01:58:07.000Z,31.33
2022-12-17T02:00:53.080Z,34.47
2022-12-17T02:03:39.299Z,30.30
2022-12-17T02:06:35.711Z,27.67
2022-12-17T02:09:29.306Z,31.73
2022-12-17T02:12:21.122Z,32.57
2022-12-17T02:15:30.851Z,28.17
2022-12-17T02:18:22.682Z,31.80
2022-12-17T02:21:13.537Z,30.67
2022-12-17T02:24:07.820Z,29.20
2022-12-17T02:26:57.217Z,32.27
2022-12-17T02:29:45.987Z,36.00
2022-12-17T02:32:33.275Z,29.50
2022-12-17T02:35:21.477Z,25.13
2022-12-17T02:38:07.684Z,28.40
2022-12-17T02:40:54.857Z,27.60
2022-12-17T02:43:45.483Z,24.20
2022-12-17T02:46:31.803Z,27.77
2022-12-17T02:49:17.934Z,27.60
2022-12-17T02:52:04.058Z,27.37
2022-12-17T02:54:51.484Z,26.00
2022-12-17T02:57:39.974Z,32.67
2022-12-17T03:00:31.842Z,32.90
2022-12-17T03:03:17.914Z,29.23
2022-12-17T03:06:04.122Z,29.07
2022-12-17T03:08:50.206Z,29.47
2022-12-17T03:11:36.394Z,27.10
2022-12-17T03:14:22.065Z,28.87
2022-12-17T03:17:09.693Z,26.07
2022-12-17T03:19:55.551Z,26.43
2022-12-17T03:22:41.164Z,28.87
2022-12-17T03:25:27.212Z,25.83
2022-12-17T03:28:13.357Z,27.73
2022-12-17T03:30:59.202Z,28.97
2022-12-17T03:33:46.517Z,31.97
2022-12-17T03:36:32.507Z,39.67
2022-12-17T03:39:18.574Z,34.17
2022-12-17T03:42:04.684Z,32.43
2022-12-17T03:44:50.634Z,30.13
2022-12-17T03:47:36.261Z,35.20
2022-12-17T03:50:24.610Z,30.47
2022-12-17T03:53:10.807Z,33.17
2022-12-17T03:55:56.799Z,30.17
2022-12-17T03:58:42.575Z,33.93
2022-12-17T04:01:28.672Z,32.10
2022-12-17T04:04:14.465Z,34.17
2022-12-17T04:07:01.736Z,33.63
2022-12-17T04:09:49.678Z,33.33
2022-12-17T04:12:35.754Z,30.37
2022-12-17T04:15:23.719Z,30.57
2022-12-17T04:18:09.491Z,32.83
2022-12-17T04:20:55.239Z,30.07
2022-12-17T04:23:42.715Z,30.40
2022-12-17T04:26:28.355Z,31.00
2022-12-17T04:29:14.342Z,32.63
2022-12-17T04:32:00.635Z,33.73
2022-12-17T04:34:49.665Z,30.83
2022-12-17T04:37:35.252Z,31.63
2022-12-17T04:40:22.977Z,30.40
2022-12-17T04:43:11.245Z,32.20
2022-12-17T04:45:57.103Z,32.83
2022-12-17T04:48:43.467Z,33.33
2022-12-17T04:51:29.529Z,32.27
2022-12-17T04:54:20.511Z,32.90
2022-12-17T04:57:07.320Z,36.30
2022-12-17T04:59:52.965Z,37.97
2022-12-17T05:02:42.692Z,36.83
2022-12-17T05:05:28.718Z,34.47
2022-12-17T05:08:14.707Z,37.40
2022-12-17T05:11:00.841Z,36.47
2022-12-17T05:13:48.441Z,40.93
2022-12-17T05:16:34.445Z,37.63
2022-12-17T05:19:20.045Z,35.70
2022-12-17T05:22:06.062Z,37.40
2022-12-17T05:24:52.091Z,38.67
2022-12-17T05:27:38.018Z,36.70
2022-12-17T05:30:26.219Z,38.07
2022-12-17T05:33:17.665Z,34.23
2022-12-17T05:36:03.891Z,35.77
2022-12-17T05:38:48.991Z,33.63
2022-12-17T05:41:34.710Z,33.90
2022-12-17T05:44:20.592Z,36.30
2022-12-17T05:47:07.690Z,38.57
2022-12-17T05:49:53.665Z,35.27
2022-12-17T05:52:42.403Z,31.67
2022-12-17T05:55:28.357Z,41.43
2022-12-17T05:58:20.828Z,37.67
2022-12-17T06:01:06.611Z,35.50
2022-12-17T06:03:53.789Z,43.00
2022-12-17T06:06:39.577Z,35.47
2022-12-17T06:09:25.661Z,38.93
2022-12-17T06:12:11.533Z,41.83
2022-12-17T06:14:57.558Z,37.53
2022-12-17T06:17:45.596Z,35.00
2022-12-17T06:20:32.722Z,38.17
2022-12-17T06:23:19.314Z,43.70
2022-12-17T06:26:05.099Z,45.37
2022-12-17T06:28:51.391Z,41.37
2022-12-17T06:31:37.613Z,42.47
2022-12-17T06:34:23.522Z,47.67
2022-12-17T06:37:10.567Z,42.10
2022-12-17T06:39:56.328Z,40.73
2022-12-17T06:42:42.364Z,45.60
2022-12-17T06:45:28.219Z,49.43
2022-12-17T06:48:20.569Z,48.90
2022-12-17T06:51:06.173Z,49.00
2022-12-17T06:53:53.163Z,51.07
2022-12-17T06:56:39.119Z,55.80
2022-12-17T06:59:24.957Z,58.03
2022-12-17T07:02:10.898Z,65.10
2022-12-17T07:05:11.287Z,62.97
2022-12-17T07:07:57.347Z,67.17
2022-12-17T07:10:44.313Z,67.20
2022-12-17T07:13:30.347Z,64.27
2022-12-17T07:16:16.415Z,72.93
2022-12-17T07:19:02.458Z,75.60
2022-12-17T07:21:48.473Z,67.37
2022-12-17T07:24:34.226Z,78.63
2022-12-17T07:27:21.477Z,75.47
2022-12-17T07:30:07.548Z,70.10
2022-12-17T07:32:53.360Z,76.10
2022-12-17T07:35:40.095Z,77.10
2022-12-17T07:38:26.136Z,78.00
2022-12-17T07:41:12.034Z,77.87
2022-12-17T07:43:59.276Z,76.37
2022-12-17T07:46:53.791Z,80.17
2022-12-17T07:49:39.691Z,80.50
2022-12-17T07:52:25.445Z,81.27
2022-12-17T07:55:15.399Z,82.80
2022-12-17T07:58:04.024Z,77.10
2022-12-17T08:00:51.396Z,84.53
2022-12-17T08:03:37.288Z,77.30
2022-12-17T08:06:35.123Z,78.83
2022-12-17T08:09:20.872Z,80.03
2022-12-17T08:12:06.896Z,83.37
2022-12-17T08:14:52.651Z,76.63
2022-12-17T08:17:39.770Z,77.73
2022-12-17T08:20:26.611Z,75.97
2022-12-17T08:23:18.746Z,74.70
2022-12-17T08:26:04.397Z,67.13
2022-12-17T08:28:51.155Z,73.07
2022-12-17T08:31:37.970Z,73.60
2022-12-17T08:34:25.207Z,67.60
2022-12-17T08:37:11.235Z,67.73
2022-12-17T08:39:57.418Z,68.50
2022-12-17T08:42:43.168Z,68.60
2022-12-17T08:45:29.480Z,70.27
2022-12-17T08:48:26.858Z,69.83
2022-12-17T08:51:13.767Z,65.17
2022-12-17T08:53:59.624Z,69.80
2022-12-17T08:56:45.339Z,64.70
2022-12-17T08:59:30.942Z,70.83
2022-12-17T09:02:17.395Z,65.50
2022-12-17T09:05:03.551Z,63.73
2022-12-17T09:07:50.448Z,59.93
2022-12-17T09:10:36.757Z,63.53
2022-12-17T09:13:22.753Z,63.50
2022-12-17T09:16:12.520Z,63.27
2022-12-17T09:18:58.879Z,63.07
2022-12-17T09:21:46.410Z,60.53
2022-12-17T09:24:33.821Z,55.23
2022-12-17T09:27:20.099Z,57.47
2022-12-17T09:30:06.308Z,54.67
2022-12-17T09:32:52.103Z,59.43
2022-12-17T09:35:38.029Z,53.23
2022-12-17T09:38:23.956Z,59.47
2022-12-17T09:41:11.632Z,56.67
2022-12-17T09:44:04.040Z,52.97
2022-12-17T09:46:58.239Z,54.27
2022-12-17T09:49:46.127Z,51.97
2022-12-17T09:52:40.990Z,52.17
2022-12-17T09:55:53.782Z,49.13
2022-12-17T09:58:42.986Z,52.87
2022-12-17T10:01:35.344Z,51.53
2022-12-17T10:04:22.114Z,46.80
2022-12-17T10:07:07.990Z,40.93
2022-12-17T10:09:55.142Z,45.83
2022-12-17T10:12:43.069Z,45.57
2022-12-17T10:15:33.778Z,44.47
2022-12-17T10:18:25.191Z,41.60
2022-12-17T10:21:16.310Z,42.30
2022-12-17T10:24:02.466Z,41.27
2022-12-17T10:26:50.693Z,44.97
2022-12-17T10:29:42.554Z,42.27
2022-12-17T10:32:41.148Z,37.53
2022-12-17T10:35:30.641Z,50.37
2022-12-17T10:38:18.776Z,35.13
2022-12-17T10:41:04.550Z,38.47
2022-12-17T10:43:52.799Z,42.43
2022-12-17T10:46:43.142Z,41.97
2022-12-17T10:49:36.334Z,41.93
2022-12-17T10:52:25.769Z,39.07
2022-12-17T10:55:18.313Z,37.87
2022-12-17T10:58:05.297Z,40.23
2022-12-17T11:00:54.645Z,40.03
2022-12-17T11:03:56.185Z,37.10
2022-12-17T11:06:48.267Z,37.33
2022-12-17T11:09:42.223Z,38.30
2022-12-17T11:12:31.025Z,38.43
2022-12-17T11:15:23.574Z,36.00
2022-12-17T11:18:11.812Z,42.97
2022-12-17T11:21:06.000Z,39.23
2022-12-17T11:24:01.725Z,42.23
2022-12-17T11:26:52.440Z,40.23
2022-12-17T11:29:39.248Z,42.33
2022-12-17T11:32:59.967Z,41.83
2022-12-17T11:35:51.986Z,79.43
2022-12-17T11:38:48.494Z,47.87
2022-12-17T11:41:42.902Z,43.47
2022-12-17T11:44:39.918Z,47.30
2022-12-17T11:47:36.021Z,42.07
2022-12-17T11:50:30.744Z,42.33
2022-12-17T11:53:27.548Z,42.70
2022-12-17T11:56:20.991Z,48.13
2022-12-17T11:59:11.344Z,43.70
2022-12-17T12:02:04.468Z,41.97
2022-12-17T12:05:09.327Z,41.40
2022-12-17T12:08:01.536Z,46.33
2022-12-17T12:10:55.836Z,46.67
2022-12-17T12:13:47.815Z,47.23
2022-12-17T12:16:43.921Z,48.97
2022-12-17T12:19:38.169Z,49.77
2022-12-17T12:22:33.117Z,48.20
2022-12-17T12:25:36.201Z,50.47
2022-12-17T12:28:35.894Z,48.57
2022-12-17T12:31:31.746Z,50.30
2022-12-17T12:34:21.419Z,48.57
2022-12-17T12:37:09.408Z,45.10
2022-12-17T12:39:59.130Z,46.17
2022-12-17T12:42:52.461Z,50.53
2022-12-17T12:45:54.185Z,50.90
2022-12-17T12:48:52.384Z,49.03
2022-12-17T12:51:43.316Z,50.97
2022-12-17T12:54:47.096Z,44.87
2022-12-17T12:57:50.454Z,51.20
2022-12-17T13:00:56.351Z,44.50
2022-12-17T13:03:48.646Z,46.97
2022-12-17T13:06:43.234Z,47.40
2022-12-17T13:09:38.734Z,46.43
2022-12-17T13:12:29.807Z,48.10
2022-12-17T13:15:16.877Z,46.60
2022-12-17T13:17:56.368Z,45.93
2022-12-17T13:20:28.585Z,53.70
2022-12-17T13:23:17.034Z,51.70
2022-12-17T13:25:45.626Z,48.73
2022-12-17T13:28:28.498Z,51.40
2022-12-17T13:31:04.583Z,53.90
2022-12-17T13:33:41.105Z,74.83
2022-12-17T13:36:18.466Z,59.97
2022-12-17T13:38:56.142Z,56.73
2022-12-17T13:41:31.029Z,147.10
2022-12-17T13:44:02.724Z,83.23
2022-12-17T13:46:46.619Z,60.37
2022-12-17T13:49:19.885Z,59.20
2022-12-17T13:51:48.878Z,65.33
2022-12-17T13:54:20.359Z,56.80
2022-12-17T13:56:48.923Z,54.93
2022-12-17T13:59:21.117Z,55.67
2022-12-17T14:01:51.769Z,53.13
2022-12-17T14:04:23.621Z,53.40
2022-12-17T14:06:52.870Z,48.93
2022-12-17T14:09:25.154Z,51.73
2022-12-17T14:12:11.527Z,52.67
2022-12-17T14:14:41.684Z,59.43
2022-12-17T14:17:18.713Z,59.40
2022-12-17T14:19:47.887Z,56.67
2022-12-17T14:22:21.834Z,58.83
2022-12-17T14:24:51.592Z,58.27
2022-12-17T14:27:25.931Z,62.03
2022-12-17T14:29:54.327Z,65.17
2022-12-17T14:32:28.065Z,62.43
2022-12-17T14:35:00.641Z,59.73
2022-12-17T14:37:30.518Z,63.80
2022-12-17T14:40:04.105Z,63.77
2022-12-17T14:42:36.896Z,62.93
2022-12-17T14:45:08.423Z,62.53
2022-12-17T14:47:38.107Z,61.00
2022-12-17T14:50:09.768Z,69.23
2022-12-17T14:52:44.070Z,64.40
2022-12-17T14:55:35.302Z,66.93
2022-12-17T14:58:24.714Z,68.63
2022-12-17T15:00:55.702Z,63.97
2022-12-17T15:03:27.589Z,72.13
2022-12-17T15:05:59.748Z,70.13
2022-12-17T15:08:32.044Z,69.13
2022-12-17T15:11:01.964Z,66.83
2022-12-17T15:13:30.783Z,73.47
2022-12-17T15:15:59.193Z,67.97
2022-12-17T15:18:27.773Z,70.90
2022-12-17T15:20:56.086Z,69.27
2022-12-17T15:23:25.305Z,71.50
2022-12-17T15:25:55.469Z,65.73
2022-12-17T15:28:25.683Z,69.13
2022-12-17T15:30:54.298Z,72.03
2022-12-17T15:33:22.800Z,70.57
2022-12-17T15:35:51.179Z,70.53
2022-12-17T15:38:19.610Z,68.43
2022-12-17T15:40:48.138Z,74.07
2022-12-17T15:43:16.099Z,77.37
2022-12-17T15:45:46.945Z,71.63
2022-12-17T15:48:17.043Z,75.40
2022-12-17T15:50:45.490Z,77.63
2022-12-17T15:53:14.401Z,78.33
2022-12-17T15:55:43.404Z,79.50
2022-12-17T15:58:12.434Z,76.23
2022-12-17T16:00:40.652Z,78.60
2022-12-17T16:03:10.402Z,76.83
2022-12-17T16:05:39.196Z,83.17
2022-12-17T16:08:07.817Z,85.10
2022-12-17T16:10:36.238Z,82.00
2022-12-17T16:13:04.718Z,86.97
2022-12-17T16:15:33.150Z,83.17
2022-12-17T16:18:01.882Z,84.17
2022-12-17T16:20:31.529Z,83.47
2022-12-17T16:23:01.145Z,88.33
2022-12-17T16:25:29.747Z,85.97
2022-12-17T16:27:58.182Z,86.83
2022-12-17T16:30:26.625Z,94.70
2022-12-17T16:32:55.250Z,90.87
2022-12-17T16:35:24.896Z,86.67
2022-12-17T16:37:54.560Z,90.37
2022-12-17T16:40:22.971Z,94.67
2022-12-17T16:42:51.513Z,90.87
2022-12-17T16:45:19.878Z,94.50
2022-12-17T16:47:48.193Z,98.67
2022-12-17T16:50:16.944Z,92.17
2022-12-17T16:52:45.317Z,98.50
2022-12-17T16:55:15.153Z,99.17
2022-12-17T16:57:43.639Z,103.70
2022-12-17T17:00:13.228Z,101.20
2022-12-17T17:02:42.465Z,102.03
2022-12-17T17:05:11.089Z,98.73
2022-12-17T17:07:39.633Z,103.53
2022-12-17T17:10:08.581Z,109.77
2022-12-17T17:12:38.372Z,100.27
2022-12-17T17:15:07.680Z,112.97
2022-12-17T17:17:55.058Z,120.43
2022-12-17T17:20:24.799Z,117.27
2022-12-17T17:22:53.166Z,122.33
2022-12-17T17:25:22.284Z,122.50
2022-12-17T17:27:51.934Z,117.57
2022-12-17T17:30:20.623Z,106.20
2022-12-17T17:32:49.306Z,133.73
2022-12-17T17:35:17.894Z,137.57
2022-12-17T17:37:46.203Z,132.30
2022-12-17T17:40:15.004Z,138.00
2022-12-17T17:42:48.687Z,139.27
2022-12-17T17:45:21.108Z,145.53
2022-12-17T17:47:49.504Z,139.27
2022-12-17T17:50:17.872Z,137.30
2022-12-17T17:52:46.604Z,128.73
2022-12-17T17:55:15.040Z,115.00
2022-12-17T17:57:43.497Z,114.67
2022-12-17T18:00:12.922Z,118.13
2022-12-17T18:02:42.676Z,127.93
2022-12-17T18:05:11.381Z,123.20
2022-12-17T18:07:39.701Z,119.53
2022-12-17T18:10:09.209Z,117.87
2022-12-17T18:12:54.833Z,126.77
2022-12-17T18:15:23.266Z,104.53
2022-12-17T18:17:53.206Z,122.53
2022-12-17T18:20:21.445Z,119.60
2022-12-17T18:22:50.587Z,121.43
2022-12-17T18:25:19.122Z,134.60
2022-12-17T18:27:47.529Z,139.27
2022-12-17T18:30:17.047Z,137.87
2022-12-17T18:32:45.703Z,147.67
2022-12-17T18:35:15.448Z,152.83
2022-12-17T18:37:44.183Z,159.97
2022-12-17T18:40:12.805Z,153.17
2022-12-17T18:42:58.931Z,157.40
2022-12-17T18:45:27.269Z,152.37
2022-12-17T18:47:55.846Z,147.93
2022-12-17T18:50:25.481Z,156.17
2022-12-17T18:52:53.930Z,145.97
2022-12-17T18:55:22.351Z,155.97
2022-12-17T18:57:50.746Z,146.30
2022-12-17T19:00:19.401Z,138.63
2022-12-17T19:02:48.074Z,139.40
2022-12-17T19:05:16.794Z,139.33
2022-12-17T19:07:46.647Z,125.77
2022-12-17T19:10:15.194Z,133.30
2022-12-17T19:12:43.675Z,129.33
2022-12-17T19:15:12.254Z,128.97
2022-12-17T19:17:40.815Z,133.73
2022-12-17T19:20:10.236Z,131.00
2022-12-17T19:22:38.844Z,129.33
2022-12-17T19:25:09.177Z,117.93
2022-12-17T19:27:37.742Z,118.00
2022-12-17T19:30:06.959Z,118.77
2022-12-17T19:32:35.385Z,111.40
2022-12-17T19:35:03.854Z,109.83
2022-12-17T19:37:32.174Z,103.10
2022-12-17T19:40:00.930Z,107.03
2022-12-17T19:42:37.143Z,104.47
2022-12-17T19:45:06.744Z,104.60
2022-12-17T19:47:35.175Z,95.07
2022-12-17T19:50:03.573Z,100.70
2022-12-17T19:52:32.290Z,100.67
2022-12-17T19:55:01.913Z,105.30
2022-12-17T19:57:31.797Z,102.63
2022-12-17T20:00:00.242Z,99.50
2022-12-17T20:02:32.827Z,98.63
2022-12-17T20:05:01.962Z,106.30
2022-12-17T20:07:30.406Z,101.77
2022-12-17T20:09:58.856Z,102.97
2022-12-17T20:12:27.430Z,109.27
2022-12-17T20:14:57.020Z,104.50
2022-12-17T20:17:26.399Z,104.47
2022-12-17T20:19:56.420Z,101.33
2022-12-17T20:22:26.645Z,106.53
2022-12-17T20:24:55.049Z,101.17
2022-12-17T20:27:23.347Z,104.13
2022-12-17T20:29:51.739Z,102.37
2022-12-17T20:32:21.585Z,103.10
2022-12-17T20:34:50.081Z,105.73
2022-12-17T20:37:18.494Z,106.97
2022-12-17T20:39:46.909Z,102.73
2022-12-17T20:42:15.294Z,107.30
2022-12-17T20:44:46.423Z,108.47
2022-12-17T20:47:18.439Z,98.10
2022-12-17T20:49:48.355Z,102.57
2022-12-17T20:52:16.919Z,103.60
2022-12-17T20:54:45.324Z,105.70
2022-12-17T20:57:14.157Z,104.90
2022-12-17T20:59:42.399Z,96.70
2022-12-17T21:02:11.900Z,99.03
2022-12-17T21:04:40.508Z,100.90
2022-12-17T21:07:10.271Z,102.60
2022-12-17T21:09:38.543Z,104.30
2022-12-17T21:12:07.654Z,102.97
2022-12-17T21:14:36.195Z,104.33
2022-12-17T21:17:05.239Z,105.93
2022-12-17T21:19:33.852Z,109.57
2022-12-17T21:22:02.418Z,114.97
2022-12-17T21:24:32.224Z,115.37
2022-12-17T21:27:00.724Z,108.00
2022-12-17T21:29:29.563Z,108.90
2022-12-17T21:31:57.969Z,107.60
2022-12-17T21:34:29.289Z,114.97
2022-12-17T21:36:57.679Z,109.67
2022-12-17T21:39:26.363Z,115.87
2022-12-17T21:42:13.656Z,113.67
2022-12-17T21:44:42.341Z,113.20
2022-12-17T21:47:11.114Z,121.07
2022-12-17T21:49:39.365Z,113.40
2022-12-17T21:52:09.834Z,123.43
2022-12-17T21:54:39.661Z,122.30
2022-12-17T21:57:10.148Z,124.47
2022-12-17T21:59:38.537Z,112.90
2022-12-17T22:02:07.142Z,113.13
2022-12-17T22:04:35.685Z,120.87
2022-12-17T22:07:10.393Z,119.87
2022-12-17T22:09:54.517Z,114.53
2022-12-17T22:12:49.370Z,121.70
2022-12-17T22:15:18.080Z,112.47
2022-12-17T22:17:47.149Z,112.27
2022-12-17T22:20:17.452Z,121.73
2022-12-17T22:22:46.687Z,118.20
2022-12-17T22:25:15.681Z,115.90
2022-12-17T22:27:45.714Z,122.80
2022-12-17T22:30:34.111Z,120.50
2022-12-17T22:33:06.467Z,118.00
2022-12-17T22:37:28.161Z,121.83
2022-12-17T22:42:09.876Z,123.40
2022-12-17T22:44:39.380Z,123.23
2022-12-17T22:44:53.515Z,127.43
2022-12-17T22:47:22.553Z,124.33
2022-12-17T22:49:51.083Z,124.20
2022-12-17T22:52:20.547Z,133.40
2022-12-17T22:54:49.105Z,129.90
2022-12-17T22:57:35.290Z,125.63
2022-12-17T23:00:10.976Z,119.37
2022-12-17T23:02:39.652Z,127.83
2022-12-17T23:05:08.494Z,126.80
2022-12-17T23:07:36.876Z,129.93
2022-12-17T23:10:05.561Z,123.83
2022-12-17T23:12:52.160Z,133.73
2022-12-17T23:15:25.104Z,134.57
2022-12-17T23:17:55.784Z,133.37
2022-12-17T23:20:25.046Z,139.90
2022-12-17T23:22:53.319Z,138.13
2022-12-17T23:25:22.008Z,139.23
2022-12-17T23:27:50.563Z,134.60
2022-12-17T23:30:19.666Z,131.27
2022-12-17T23:32:49.314Z,132.00
2022-12-17T23:35:17.768Z,148.20
2022-12-17T23:37:46.146Z,135.33
2022-12-17T23:40:14.970Z,137.77
2022-12-17T23:42:43.644Z,144.00
2022-12-17T23:45:12.622Z,144.00
2022-12-17T23:47:41.320Z,146.47
2022-12-17T23:50:12.181Z,150.27
2022-12-17T23:52:41.153Z,141.97
2022-12-17T23:55:11.681Z,152.67
2022-12-17T23:57:40.292Z,150.77
